HFY24 ZUUU-VMMC
Flight info
| Callsign | HFY24 |
|---|---|
| Flight time | 1h 50m |
| Altitude | 41100 |
| Route | IDBOR9W IDBOR B330 KWE W181 DUDIT A599 POU W7 SAREX W6 LATOP |
| Aircraft | A343/H-SDE2E3FGHIJ4J5M1RWXY/LB1D1 |
Departure
| Time | 2026-04-16 10:25 |
|---|---|
| Airport | Chengdu Shuangliu International Airport (ZUUU) |
Arrival
| Time | 2026-04-16 12:15 |
|---|---|
| Airport | Macau International Airport (VMMC) |
| Time | Latitude | Longitude | Altitude | Speed | Heading |
|---|---|---|---|---|---|
| 2026-04-16 09:58 | 30.55919 | 103.94947 | 1651 ft | 0 kts | 336° |
| 2026-04-16 10:11 | 30.55899 | 103.94957 | 1651 ft | 4 kts | 336° |
| 2026-04-16 10:11 | 30.55873 | 103.94968 | 1651 ft | 4 kts | 348° |
| 2026-04-16 10:11 | 30.55847 | 103.94971 | 1651 ft | 4 kts | 14° |
| 2026-04-16 10:12 | 30.55828 | 103.94957 | 1651 ft | 2 kts | 66° |
| 2026-04-16 10:12 | 30.55820 | 103.94934 | 1651 ft | 4 kts | 67° |
| 2026-04-16 10:12 | 30.55815 | 103.94922 | 1651 ft | 3 kts | 67° |
| 2026-04-16 10:16 | 30.55823 | 103.94943 | 1651 ft | 11 kts | 67° |
| 2026-04-16 10:16 | 30.55859 | 103.95040 | 1651 ft | 14 kts | 65° |
| 2026-04-16 10:16 | 30.55906 | 103.95149 | 1651 ft | 16 kts | 55° |
| 2026-04-16 10:16 | 30.55992 | 103.95206 | 1651 ft | 15 kts | 21° |
| 2026-04-16 10:17 | 30.56093 | 103.95249 | 1651 ft | 16 kts | 20° |
| 2026-04-16 10:17 | 30.56201 | 103.95292 | 1651 ft | 13 kts | 6° |
| 2026-04-16 10:17 | 30.56224 | 103.95278 | 1651 ft | 2 kts | 306° |
| 2026-04-16 10:17 | 30.56227 | 103.95252 | 1651 ft | 6 kts | 275° |
| 2026-04-16 10:18 | 30.56243 | 103.95178 | 1651 ft | 11 kts | 289° |
| 2026-04-16 10:18 | 30.56272 | 103.95092 | 1651 ft | 12 kts | 292° |
| 2026-04-16 10:18 | 30.56308 | 103.94992 | 1651 ft | 14 kts | 292° |
| 2026-04-16 10:18 | 30.56346 | 103.94881 | 1651 ft | 16 kts | 291° |
| 2026-04-16 10:19 | 30.56389 | 103.94758 | 1651 ft | 17 kts | 293° |
| 2026-04-16 10:19 | 30.56438 | 103.94627 | 1651 ft | 18 kts | 293° |
| 2026-04-16 10:19 | 30.56475 | 103.94499 | 1651 ft | 11 kts | 260° |
| 2026-04-16 10:19 | 30.56446 | 103.94464 | 1651 ft | 5 kts | 200° |
| 2026-04-16 10:20 | 30.56393 | 103.94444 | 1651 ft | 13 kts | 200° |
| 2026-04-16 10:20 | 30.56293 | 103.94398 | 1651 ft | 17 kts | 202° |
| 2026-04-16 10:20 | 30.56178 | 103.94344 | 1651 ft | 19 kts | 202° |
| 2026-04-16 10:20 | 30.56054 | 103.94286 | 1651 ft | 20 kts | 202° |
| 2026-04-16 10:21 | 30.55922 | 103.94226 | 1651 ft | 21 kts | 201° |
| 2026-04-16 10:21 | 30.55845 | 103.94169 | 1651 ft | 7 kts | 257° |
| 2026-04-16 10:21 | 30.55867 | 103.94132 | 1651 ft | 6 kts | 330° |
| 2026-04-16 10:21 | 30.55918 | 103.94125 | 1651 ft | 10 kts | 8° |
| 2026-04-16 10:22 | 30.56013 | 103.94166 | 1651 ft | 17 kts | 21° |
| 2026-04-16 10:22 | 30.56126 | 103.94221 | 1651 ft | 18 kts | 22° |
| 2026-04-16 10:22 | 30.56246 | 103.94258 | 1651 ft | 16 kts | 346° |
| 2026-04-16 10:22 | 30.56287 | 103.94197 | 1652 ft | 9 kts | 289° |
| 2026-04-16 10:23 | 30.56311 | 103.94124 | 1652 ft | 11 kts | 291° |
| 2026-04-16 10:23 | 30.56348 | 103.94040 | 1651 ft | 12 kts | 310° |
| 2026-04-16 10:23 | 30.56421 | 103.94038 | 1652 ft | 11 kts | 19° |
| 2026-04-16 10:23 | 30.56493 | 103.94072 | 1653 ft | 12 kts | 22° |
| 2026-04-16 10:24 | 30.56574 | 103.94110 | 1654 ft | 15 kts | 22° |
| 2026-04-16 10:24 | 30.56741 | 103.94188 | 1653 ft | 40 kts | 22° |
| 2026-04-16 10:24 | 30.57219 | 103.94409 | 1649 ft | 109 kts | 21° |
| 2026-04-16 10:24 | 30.58099 | 103.94818 | 1681 ft | 163 kts | 20° |
| 2026-04-16 10:25 | 30.59203 | 103.95317 | 2193 ft | 176 kts | 17° |
| 2026-04-16 10:25 | 30.60381 | 103.95857 | 2909 ft | 184 kts | 20° |
| 2026-04-16 10:25 | 30.61670 | 103.96489 | 3332 ft | 218 kts | 20° |
| 2026-04-16 10:25 | 30.63157 | 103.97183 | 4018 ft | 241 kts | 20° |
| 2026-04-16 10:26 | 30.64750 | 103.97916 | 4798 ft | 256 kts | 21° |
| 2026-04-16 10:26 | 30.66419 | 103.98709 | 5818 ft | 259 kts | 25° |
| 2026-04-16 10:26 | 30.67838 | 103.99939 | 7055 ft | 257 kts | 51° |
| 2026-04-16 10:26 | 30.68880 | 104.01658 | 8130 ft | 264 kts | 58° |
| 2026-04-16 10:27 | 30.69841 | 104.03526 | 9121 ft | 272 kts | 63° |
| 2026-04-16 10:27 | 30.70482 | 104.05625 | 10045 ft | 283 kts | 81° |
| 2026-04-16 10:27 | 30.70476 | 104.07922 | 10966 ft | 287 kts | 102° |
| 2026-04-16 10:27 | 30.69768 | 104.10092 | 11915 ft | 290 kts | 122° |
| 2026-04-16 10:28 | 30.68431 | 104.11848 | 12849 ft | 292 kts | 143° |
| 2026-04-16 10:28 | 30.66625 | 104.12945 | 13803 ft | 296 kts | 164° |
| 2026-04-16 10:28 | 30.64587 | 104.13250 | 14654 ft | 297 kts | 181° |
| 2026-04-16 10:28 | 30.62506 | 104.13183 | 15433 ft | 304 kts | 184° |
| 2026-04-16 10:29 | 30.60368 | 104.13068 | 16152 ft | 311 kts | 184° |
| 2026-04-16 10:29 | 30.58188 | 104.12962 | 16907 ft | 316 kts | 185° |
| 2026-04-16 10:29 | 30.55975 | 104.12865 | 17668 ft | 322 kts | 185° |
| 2026-04-16 10:29 | 30.53735 | 104.12774 | 18423 ft | 327 kts | 185° |
| 2026-04-16 10:30 | 30.51440 | 104.12684 | 19121 ft | 331 kts | 186° |
| 2026-04-16 10:30 | 30.49125 | 104.12586 | 19840 ft | 334 kts | 187° |
| 2026-04-16 10:30 | 30.46828 | 104.12229 | 20553 ft | 333 kts | 198° |
| 2026-04-16 10:30 | 30.44590 | 104.11393 | 20991 ft | 343 kts | 206° |
| 2026-04-16 10:31 | 30.42331 | 104.10334 | 21327 ft | 357 kts | 207° |
| 2026-04-16 10:31 | 30.39988 | 104.09216 | 21669 ft | 372 kts | 206° |
| 2026-04-16 10:31 | 30.37555 | 104.08065 | 22024 ft | 386 kts | 206° |
| 2026-04-16 10:31 | 30.35013 | 104.06872 | 22361 ft | 399 kts | 206° |
| 2026-04-16 10:32 | 30.32360 | 104.05794 | 22829 ft | 411 kts | 200° |
| 2026-04-16 10:32 | 30.29527 | 104.05092 | 23411 ft | 422 kts | 193° |
| 2026-04-16 10:32 | 30.26605 | 104.04867 | 23921 ft | 432 kts | 185° |
| 2026-04-16 10:32 | 30.23569 | 104.05156 | 24419 ft | 442 kts | 176° |
| 2026-04-16 10:33 | 30.20549 | 104.05993 | 24920 ft | 452 kts | 167° |
| 2026-04-16 10:33 | 30.17603 | 104.07394 | 25419 ft | 462 kts | 158° |
| 2026-04-16 10:33 | 30.14840 | 104.09347 | 25915 ft | 471 kts | 148° |
| 2026-04-16 10:33 | 30.12336 | 104.11831 | 26382 ft | 480 kts | 138° |
| 2026-04-16 10:34 | 30.10170 | 104.14822 | 26859 ft | 489 kts | 128° |
| 2026-04-16 10:34 | 30.08230 | 104.18049 | 27305 ft | 492 kts | 129° |
| 2026-04-16 10:34 | 30.06030 | 104.21086 | 27754 ft | 490 kts | 139° |
| 2026-04-16 10:34 | 30.03484 | 104.23675 | 28212 ft | 488 kts | 146° |
| 2026-04-16 10:35 | 30.00803 | 104.26101 | 28639 ft | 491 kts | 147° |
| 2026-04-16 10:35 | 29.98091 | 104.28516 | 29040 ft | 494 kts | 147° |
| 2026-04-16 10:35 | 29.95399 | 104.30912 | 29422 ft | 498 kts | 147° |
| 2026-04-16 10:35 | 29.92644 | 104.33365 | 29806 ft | 501 kts | 147° |
| 2026-04-16 10:36 | 29.89881 | 104.35824 | 30170 ft | 504 kts | 147° |
| 2026-04-16 10:36 | 29.87087 | 104.38310 | 30433 ft | 508 kts | 147° |
| 2026-04-16 10:36 | 29.84287 | 104.40800 | 30724 ft | 511 kts | 147° |
| 2026-04-16 10:36 | 29.81468 | 104.43305 | 31039 ft | 514 kts | 147° |
| 2026-04-16 10:37 | 29.78627 | 104.45830 | 31450 ft | 513 kts | 147° |
| 2026-04-16 10:37 | 29.75802 | 104.48340 | 31920 ft | 512 kts | 148° |
| 2026-04-16 10:37 | 29.72978 | 104.50845 | 32338 ft | 512 kts | 148° |
| 2026-04-16 10:37 | 29.70160 | 104.53343 | 32768 ft | 511 kts | 148° |
| 2026-04-16 10:38 | 29.67371 | 104.55813 | 33188 ft | 510 kts | 148° |
| 2026-04-16 10:38 | 29.64570 | 104.58292 | 33594 ft | 510 kts | 149° |
| 2026-04-16 10:38 | 29.61750 | 104.60786 | 34018 ft | 509 kts | 149° |
| 2026-04-16 10:38 | 29.58938 | 104.63271 | 34356 ft | 509 kts | 149° |
| 2026-04-16 10:39 | 29.56137 | 104.65744 | 34671 ft | 508 kts | 149° |
| 2026-04-16 10:39 | 29.53331 | 104.68221 | 35070 ft | 507 kts | 149° |
| 2026-04-16 10:39 | 29.50529 | 104.70691 | 35340 ft | 508 kts | 149° |
| 2026-04-16 10:39 | 29.47729 | 104.73157 | 35606 ft | 509 kts | 149° |
| 2026-04-16 10:40 | 29.44911 | 104.75638 | 35881 ft | 510 kts | 149° |
| 2026-04-16 10:40 | 29.42123 | 104.78090 | 36154 ft | 511 kts | 149° |
| 2026-04-16 10:40 | 29.39261 | 104.80607 | 36435 ft | 512 kts | 150° |
| 2026-04-16 10:40 | 29.36435 | 104.83090 | 36705 ft | 513 kts | 150° |
| 2026-04-16 10:41 | 29.33538 | 104.85432 | 36951 ft | 507 kts | 157° |
| 2026-04-16 10:41 | 29.30482 | 104.87279 | 37228 ft | 499 kts | 163° |
| 2026-04-16 10:41 | 29.27341 | 104.88949 | 37505 ft | 498 kts | 165° |
| 2026-04-16 10:41 | 29.24169 | 104.90548 | 37772 ft | 496 kts | 165° |
| 2026-04-16 10:42 | 29.21001 | 104.92110 | 38049 ft | 497 kts | 166° |
| 2026-04-16 10:42 | 29.17817 | 104.93675 | 38292 ft | 498 kts | 166° |
| 2026-04-16 10:42 | 29.14634 | 104.95248 | 38571 ft | 498 kts | 166° |
| 2026-04-16 10:42 | 29.11453 | 104.96834 | 38795 ft | 499 kts | 166° |
| 2026-04-16 10:43 | 29.08276 | 104.98432 | 39015 ft | 499 kts | 166° |
| 2026-04-16 10:43 | 29.05093 | 105.00039 | 39238 ft | 499 kts | 166° |
| 2026-04-16 10:43 | 29.01924 | 105.01639 | 39457 ft | 499 kts | 166° |
| 2026-04-16 10:43 | 28.98759 | 105.03237 | 39688 ft | 498 kts | 166° |
| 2026-04-16 10:44 | 28.95581 | 105.04841 | 39902 ft | 497 kts | 166° |
| 2026-04-16 10:44 | 28.92437 | 105.06432 | 40214 ft | 495 kts | 166° |
| 2026-04-16 10:44 | 28.89280 | 105.08020 | 40435 ft | 494 kts | 167° |
| 2026-04-16 10:44 | 28.86133 | 105.09590 | 40631 ft | 495 kts | 167° |
| 2026-04-16 10:45 | 28.82964 | 105.11168 | 40851 ft | 495 kts | 167° |
| 2026-04-16 10:45 | 28.79848 | 105.12719 | 41029 ft | 495 kts | 167° |
| 2026-04-16 10:45 | 28.73537 | 105.16035 | 41073 ft | 505 kts | 162° |
| 2026-04-16 10:46 | 28.67342 | 105.19873 | 41083 ft | 506 kts | 161° |
| 2026-04-16 10:46 | 28.61168 | 105.23757 | 41085 ft | 505 kts | 162° |
| 2026-04-16 10:47 | 28.54999 | 105.27541 | 41095 ft | 503 kts | 162° |
| 2026-04-16 10:47 | 28.48811 | 105.31278 | 41103 ft | 503 kts | 162° |
| 2026-04-16 10:48 | 28.42663 | 105.34974 | 41106 ft | 503 kts | 162° |
| 2026-04-16 10:48 | 28.36479 | 105.38692 | 41073 ft | 503 kts | 162° |
| 2026-04-16 10:49 | 28.30289 | 105.42412 | 41117 ft | 503 kts | 162° |
| 2026-04-16 10:49 | 28.24112 | 105.46119 | 41130 ft | 504 kts | 162° |
| 2026-04-16 10:50 | 28.17888 | 105.49853 | 41124 ft | 503 kts | 162° |
| 2026-04-16 10:50 | 28.11725 | 105.53540 | 41136 ft | 504 kts | 162° |
| 2026-04-16 10:51 | 28.05447 | 105.56893 | 41100 ft | 488 kts | 173° |
| 2026-04-16 10:51 | 28.02215 | 105.57816 | 41135 ft | 475 kts | 180° |
| 2026-04-16 10:51 | 27.98964 | 105.58458 | 41136 ft | 472 kts | 182° |
| 2026-04-16 10:52 | 27.92473 | 105.59516 | 41134 ft | 471 kts | 183° |
| 2026-04-16 10:52 | 27.85984 | 105.60491 | 41137 ft | 471 kts | 183° |
| 2026-04-16 10:53 | 27.79482 | 105.62019 | 41131 ft | 490 kts | 171° |
| 2026-04-16 10:53 | 27.73205 | 105.65288 | 41116 ft | 502 kts | 162° |
| 2026-04-16 10:54 | 27.67082 | 105.69056 | 41133 ft | 504 kts | 161° |
| 2026-04-16 10:54 | 27.60854 | 105.72641 | 41135 ft | 500 kts | 165° |
| 2026-04-16 10:55 | 27.54564 | 105.75983 | 41135 ft | 499 kts | 165° |
| 2026-04-16 10:55 | 27.48280 | 105.79313 | 41138 ft | 499 kts | 165° |
| 2026-04-16 10:56 | 27.42041 | 105.82658 | 41132 ft | 499 kts | 165° |
| 2026-04-16 10:56 | 27.35776 | 105.86033 | 41130 ft | 499 kts | 165° |
| 2026-04-16 10:57 | 27.29515 | 105.89403 | 41132 ft | 498 kts | 165° |
| 2026-04-16 10:57 | 27.23260 | 105.92764 | 41131 ft | 499 kts | 165° |
| 2026-04-16 10:58 | 27.16996 | 105.96125 | 41130 ft | 499 kts | 165° |
| 2026-04-16 10:58 | 27.10751 | 105.99473 | 41123 ft | 497 kts | 165° |
| 2026-04-16 10:59 | 27.04702 | 106.03433 | 41125 ft | 515 kts | 150° |
| 2026-04-16 10:59 | 27.02071 | 106.06249 | 41127 ft | 529 kts | 138° |
| 2026-04-16 10:59 | 26.99715 | 106.09430 | 41121 ft | 533 kts | 136° |
| 2026-04-16 11:00 | 26.95243 | 106.16036 | 41124 ft | 536 kts | 134° |
| 2026-04-16 11:00 | 26.91522 | 106.21678 | 41125 ft | 536 kts | 134° |
| 2026-04-16 11:01 | 26.87091 | 106.28330 | 41119 ft | 536 kts | 134° |
| 2026-04-16 11:01 | 26.82575 | 106.35029 | 41099 ft | 536 kts | 135° |
| 2026-04-16 11:02 | 26.78110 | 106.41620 | 41116 ft | 534 kts | 135° |
| 2026-04-16 11:02 | 26.73622 | 106.48238 | 41117 ft | 531 kts | 135° |
| 2026-04-16 11:03 | 26.69154 | 106.54814 | 41118 ft | 531 kts | 135° |
| 2026-04-16 11:04 | 26.62452 | 106.64660 | 41122 ft | 531 kts | 135° |
| 2026-04-16 11:04 | 26.57978 | 106.71226 | 41118 ft | 530 kts | 135° |
| 2026-04-16 11:05 | 26.53495 | 106.77783 | 41119 ft | 528 kts | 136° |
| 2026-04-16 11:05 | 26.48541 | 106.83703 | 41119 ft | 519 kts | 143° |
| 2026-04-16 11:06 | 26.43423 | 106.89356 | 41091 ft | 518 kts | 144° |
| 2026-04-16 11:06 | 26.38268 | 106.94981 | 41109 ft | 515 kts | 144° |
| 2026-04-16 11:07 | 26.33152 | 107.00570 | 41100 ft | 515 kts | 144° |
| 2026-04-16 11:07 | 26.28065 | 107.06137 | 41098 ft | 515 kts | 143° |
| 2026-04-16 11:08 | 26.22954 | 107.11753 | 41100 ft | 517 kts | 143° |
| 2026-04-16 11:08 | 26.17825 | 107.17387 | 41091 ft | 517 kts | 143° |
| 2026-04-16 11:09 | 26.12690 | 107.23020 | 41090 ft | 517 kts | 143° |
| 2026-04-16 11:09 | 26.07561 | 107.28638 | 41090 ft | 517 kts | 143° |
| 2026-04-16 11:10 | 26.02422 | 107.34257 | 41081 ft | 517 kts | 143° |
| 2026-04-16 11:10 | 25.97330 | 107.39816 | 41056 ft | 517 kts | 143° |
| 2026-04-16 11:11 | 25.92201 | 107.45405 | 41082 ft | 516 kts | 143° |
| 2026-04-16 11:11 | 25.87077 | 107.50989 | 41070 ft | 515 kts | 143° |
| 2026-04-16 11:12 | 25.81959 | 107.56556 | 41065 ft | 515 kts | 143° |
| 2026-04-16 11:12 | 25.76833 | 107.62126 | 41044 ft | 515 kts | 143° |
| 2026-04-16 11:13 | 25.71721 | 107.67676 | 41064 ft | 513 kts | 143° |
| 2026-04-16 11:13 | 25.66648 | 107.73215 | 41065 ft | 512 kts | 143° |
| 2026-04-16 11:14 | 25.61606 | 107.78740 | 41063 ft | 512 kts | 143° |
| 2026-04-16 11:14 | 25.56546 | 107.84276 | 41062 ft | 512 kts | 143° |
| 2026-04-16 11:15 | 25.51480 | 107.89809 | 41056 ft | 511 kts | 143° |
| 2026-04-16 11:15 | 25.45978 | 107.94585 | 41056 ft | 492 kts | 160° |
| 2026-04-16 11:15 | 25.42903 | 107.96115 | 41039 ft | 478 kts | 170° |
| 2026-04-16 11:16 | 25.39713 | 107.97005 | 41051 ft | 467 kts | 179° |
| 2026-04-16 11:16 | 25.33297 | 107.97954 | 41042 ft | 465 kts | 182° |
| 2026-04-16 11:17 | 25.26854 | 107.98678 | 41045 ft | 464 kts | 182° |
| 2026-04-16 11:17 | 25.20437 | 107.99407 | 41036 ft | 465 kts | 182° |
| 2026-04-16 11:18 | 25.14022 | 108.00173 | 41036 ft | 465 kts | 182° |
| 2026-04-16 11:18 | 25.07588 | 108.00955 | 41025 ft | 466 kts | 181° |
| 2026-04-16 11:19 | 25.01132 | 108.01743 | 41025 ft | 467 kts | 181° |
| 2026-04-16 11:19 | 24.94669 | 108.02531 | 41014 ft | 467 kts | 181° |
| 2026-04-16 11:20 | 24.88220 | 108.03314 | 41014 ft | 467 kts | 181° |
| 2026-04-16 11:20 | 24.81759 | 108.04097 | 40990 ft | 466 kts | 181° |
| 2026-04-16 11:21 | 24.75301 | 108.04879 | 41008 ft | 467 kts | 181° |
| 2026-04-16 11:21 | 24.68885 | 108.05656 | 41006 ft | 467 kts | 181° |
| 2026-04-16 11:22 | 24.62410 | 108.06440 | 41004 ft | 467 kts | 181° |
| 2026-04-16 11:22 | 24.55960 | 108.07219 | 41004 ft | 467 kts | 181° |
| 2026-04-16 11:23 | 24.49484 | 108.08008 | 40998 ft | 467 kts | 180° |
| 2026-04-16 11:23 | 24.43069 | 108.08788 | 41002 ft | 467 kts | 180° |
| 2026-04-16 11:24 | 24.36562 | 108.09577 | 41009 ft | 467 kts | 180° |
| 2026-04-16 11:24 | 24.30145 | 108.10356 | 41007 ft | 467 kts | 180° |
| 2026-04-16 11:25 | 24.23680 | 108.11139 | 41002 ft | 467 kts | 180° |
| 2026-04-16 11:25 | 24.17222 | 108.11922 | 40996 ft | 467 kts | 180° |
| 2026-04-16 11:26 | 24.10757 | 108.12704 | 40994 ft | 467 kts | 180° |
| 2026-04-16 11:26 | 24.04309 | 108.13484 | 40995 ft | 467 kts | 180° |
| 2026-04-16 11:27 | 23.97839 | 108.14267 | 40995 ft | 467 kts | 180° |
| 2026-04-16 11:27 | 23.91417 | 108.15277 | 40961 ft | 475 kts | 172° |
| 2026-04-16 11:28 | 23.85274 | 108.18166 | 40989 ft | 491 kts | 152° |
| 2026-04-16 11:28 | 23.82586 | 108.20508 | 40980 ft | 500 kts | 141° |
| 2026-04-16 11:28 | 23.80309 | 108.23418 | 40993 ft | 509 kts | 129° |
| 2026-04-16 11:28 | 23.78555 | 108.26803 | 40992 ft | 516 kts | 117° |
| 2026-04-16 11:29 | 23.77419 | 108.30540 | 40983 ft | 522 kts | 104° |
| 2026-04-16 11:29 | 23.76963 | 108.34477 | 40982 ft | 526 kts | 92° |
| 2026-04-16 11:29 | 23.77220 | 108.38482 | 40990 ft | 527 kts | 79° |
| 2026-04-16 11:29 | 23.78176 | 108.42333 | 40998 ft | 526 kts | 68° |
| 2026-04-16 11:30 | 23.79284 | 108.46139 | 40994 ft | 527 kts | 77° |
| 2026-04-16 11:30 | 23.79889 | 108.54055 | 40998 ft | 524 kts | 92° |
| 2026-04-16 11:31 | 23.79567 | 108.62010 | 40996 ft | 524 kts | 95° |
| 2026-04-16 11:31 | 23.79068 | 108.69946 | 40995 ft | 524 kts | 96° |
| 2026-04-16 11:32 | 23.78565 | 108.77880 | 40984 ft | 524 kts | 96° |
| 2026-04-16 11:32 | 23.78084 | 108.85781 | 40993 ft | 523 kts | 95° |
| 2026-04-16 11:33 | 23.77609 | 108.93709 | 40992 ft | 522 kts | 95° |
| 2026-04-16 11:33 | 23.77134 | 109.01589 | 40996 ft | 522 kts | 95° |
| 2026-04-16 11:34 | 23.76651 | 109.09522 | 41003 ft | 522 kts | 95° |
| 2026-04-16 11:34 | 23.75754 | 109.17368 | 40994 ft | 519 kts | 103° |
| 2026-04-16 11:35 | 23.74275 | 109.25088 | 40997 ft | 519 kts | 105° |
| 2026-04-16 11:35 | 23.72715 | 109.32764 | 40998 ft | 519 kts | 105° |
| 2026-04-16 11:36 | 23.71157 | 109.40394 | 40997 ft | 519 kts | 105° |
| 2026-04-16 11:36 | 23.69595 | 109.48077 | 40997 ft | 519 kts | 105° |
| 2026-04-16 11:37 | 23.68029 | 109.55787 | 40997 ft | 520 kts | 105° |
| 2026-04-16 11:37 | 23.66460 | 109.63498 | 40998 ft | 520 kts | 105° |
| 2026-04-16 11:38 | 23.64874 | 109.71215 | 41000 ft | 520 kts | 105° |
| 2026-04-16 11:38 | 23.63292 | 109.78855 | 41001 ft | 520 kts | 105° |
| 2026-04-16 11:39 | 23.61693 | 109.86567 | 41009 ft | 521 kts | 105° |
| 2026-04-16 11:39 | 23.60091 | 109.94277 | 41008 ft | 522 kts | 105° |
| 2026-04-16 11:40 | 23.58484 | 110.02000 | 41009 ft | 522 kts | 105° |
| 2026-04-16 11:40 | 23.56876 | 110.09705 | 41010 ft | 522 kts | 105° |
| 2026-04-16 11:41 | 23.55258 | 110.17442 | 41005 ft | 521 kts | 105° |
| 2026-04-16 11:41 | 23.53645 | 110.25132 | 41008 ft | 520 kts | 105° |
| 2026-04-16 11:42 | 23.52028 | 110.32824 | 41002 ft | 520 kts | 105° |
| 2026-04-16 11:42 | 23.50419 | 110.40525 | 41003 ft | 520 kts | 105° |
| 2026-04-16 11:43 | 23.48868 | 110.48178 | 40995 ft | 520 kts | 104° |
| 2026-04-16 11:43 | 23.47306 | 110.55897 | 41001 ft | 520 kts | 104° |
| 2026-04-16 11:44 | 23.45744 | 110.63569 | 41008 ft | 520 kts | 105° |
| 2026-04-16 11:44 | 23.44169 | 110.71265 | 41000 ft | 520 kts | 105° |
| 2026-04-16 11:45 | 23.42582 | 110.78908 | 41007 ft | 519 kts | 105° |
| 2026-04-16 11:45 | 23.40958 | 110.86566 | 41008 ft | 518 kts | 105° |
| 2026-04-16 11:46 | 23.39335 | 110.94204 | 41012 ft | 517 kts | 105° |
| 2026-04-16 11:46 | 23.37991 | 111.00534 | 41012 ft | 517 kts | 105° |
| 2026-04-16 11:47 | 23.36093 | 111.09464 | 40991 ft | 517 kts | 105° |
| 2026-04-16 11:47 | 23.34744 | 111.15799 | 40998 ft | 517 kts | 105° |
| 2026-04-16 11:48 | 23.33172 | 111.23430 | 41002 ft | 517 kts | 105° |
| 2026-04-16 11:48 | 23.31621 | 111.31074 | 40998 ft | 517 kts | 105° |
| 2026-04-16 11:49 | 23.30062 | 111.38712 | 40998 ft | 516 kts | 105° |
| 2026-04-16 11:49 | 23.28494 | 111.46335 | 40999 ft | 517 kts | 105° |
| 2026-04-16 11:50 | 23.26930 | 111.53916 | 41000 ft | 516 kts | 105° |
| 2026-04-16 11:50 | 23.25334 | 111.61524 | 40998 ft | 516 kts | 105° |
| 2026-04-16 11:51 | 23.23713 | 111.69128 | 41003 ft | 516 kts | 105° |
| 2026-04-16 11:51 | 23.22900 | 111.72942 | 40825 ft | 516 kts | 105° |
| 2026-04-16 11:51 | 23.22092 | 111.76737 | 40582 ft | 515 kts | 105° |
| 2026-04-16 11:51 | 23.21285 | 111.80528 | 40333 ft | 515 kts | 105° |
| 2026-04-16 11:52 | 23.20477 | 111.84333 | 40095 ft | 517 kts | 105° |
| 2026-04-16 11:52 | 23.19681 | 111.88142 | 39867 ft | 515 kts | 105° |
| 2026-04-16 11:52 | 23.18899 | 111.91920 | 39539 ft | 511 kts | 105° |
| 2026-04-16 11:52 | 23.18119 | 111.95690 | 39124 ft | 509 kts | 105° |
| 2026-04-16 11:53 | 23.17342 | 111.99441 | 38702 ft | 508 kts | 105° |
| 2026-04-16 11:53 | 23.16564 | 112.03183 | 38223 ft | 507 kts | 105° |
| 2026-04-16 11:53 | 23.15800 | 112.06850 | 37783 ft | 504 kts | 105° |
| 2026-04-16 11:53 | 23.15022 | 112.10574 | 37355 ft | 501 kts | 105° |
| 2026-04-16 11:54 | 23.14253 | 112.14250 | 36910 ft | 498 kts | 105° |
| 2026-04-16 11:54 | 23.13484 | 112.17916 | 36505 ft | 496 kts | 105° |
| 2026-04-16 11:54 | 23.12719 | 112.21561 | 36079 ft | 495 kts | 105° |
| 2026-04-16 11:54 | 23.11950 | 112.25217 | 35637 ft | 495 kts | 105° |
| 2026-04-16 11:55 | 23.11182 | 112.28861 | 35195 ft | 496 kts | 105° |
| 2026-04-16 11:55 | 23.10411 | 112.32520 | 34764 ft | 497 kts | 105° |
| 2026-04-16 11:55 | 23.09640 | 112.36176 | 34275 ft | 498 kts | 105° |
| 2026-04-16 11:55 | 23.08864 | 112.39848 | 33432 ft | 502 kts | 105° |
| 2026-04-16 11:56 | 23.08075 | 112.43575 | 32475 ft | 509 kts | 105° |
| 2026-04-16 11:56 | 23.07294 | 112.47347 | 31534 ft | 514 kts | 103° |
| 2026-04-16 11:56 | 23.06846 | 112.51211 | 30616 ft | 520 kts | 97° |
| 2026-04-16 11:56 | 23.06520 | 112.55133 | 29830 ft | 521 kts | 96° |
| 2026-04-16 11:57 | 23.06249 | 112.59045 | 29101 ft | 517 kts | 96° |
| 2026-04-16 11:57 | 23.06005 | 112.62871 | 28443 ft | 512 kts | 95° |
| 2026-04-16 11:57 | 23.05765 | 112.66714 | 27792 ft | 507 kts | 95° |
| 2026-04-16 11:57 | 23.05523 | 112.70516 | 27124 ft | 503 kts | 96° |
| 2026-04-16 11:58 | 23.05276 | 112.74285 | 26461 ft | 498 kts | 96° |
| 2026-04-16 11:58 | 23.05025 | 112.78011 | 25810 ft | 494 kts | 96° |
| 2026-04-16 11:58 | 23.04772 | 112.81724 | 25151 ft | 491 kts | 96° |
| 2026-04-16 11:58 | 23.04518 | 112.85426 | 24486 ft | 488 kts | 96° |
| 2026-04-16 11:59 | 23.04265 | 112.89086 | 23816 ft | 485 kts | 96° |
| 2026-04-16 11:59 | 23.04012 | 112.92733 | 23095 ft | 482 kts | 96° |
| 2026-04-16 11:59 | 23.03765 | 112.96284 | 22398 ft | 478 kts | 96° |
| 2026-04-16 11:59 | 23.03516 | 112.99865 | 21730 ft | 473 kts | 96° |
| 2026-04-16 12:00 | 23.03268 | 113.03411 | 21072 ft | 468 kts | 96° |
| 2026-04-16 12:00 | 23.03022 | 113.06913 | 20426 ft | 463 kts | 96° |
| 2026-04-16 12:00 | 23.02778 | 113.10388 | 19780 ft | 459 kts | 96° |
| 2026-04-16 12:00 | 23.02536 | 113.13823 | 19137 ft | 455 kts | 96° |
| 2026-04-16 12:01 | 23.02214 | 113.17227 | 18502 ft | 449 kts | 102° |
| 2026-04-16 12:01 | 23.01329 | 113.20431 | 17849 ft | 442 kts | 113° |
| 2026-04-16 12:01 | 23.00130 | 113.23466 | 17202 ft | 435 kts | 117° |
| 2026-04-16 12:02 | 22.97452 | 113.29199 | 15992 ft | 421 kts | 120° |
| 2026-04-16 12:02 | 22.96058 | 113.32026 | 15387 ft | 416 kts | 121° |
| 2026-04-16 12:02 | 22.94719 | 113.34739 | 14795 ft | 411 kts | 120° |
| 2026-04-16 12:02 | 22.93394 | 113.37447 | 14213 ft | 406 kts | 120° |
| 2026-04-16 12:03 | 22.92083 | 113.40153 | 13615 ft | 402 kts | 120° |
| 2026-04-16 12:03 | 22.90798 | 113.42823 | 12983 ft | 397 kts | 120° |
| 2026-04-16 12:03 | 22.89439 | 113.45398 | 12399 ft | 389 kts | 128° |
| 2026-04-16 12:03 | 22.87622 | 113.47499 | 11808 ft | 379 kts | 145° |
| 2026-04-16 12:04 | 22.85331 | 113.48819 | 11290 ft | 366 kts | 166° |
| 2026-04-16 12:04 | 22.82970 | 113.49464 | 11142 ft | 348 kts | 171° |
| 2026-04-16 12:04 | 22.80651 | 113.50006 | 11039 ft | 332 kts | 171° |
| 2026-04-16 12:04 | 22.78440 | 113.50511 | 10902 ft | 318 kts | 171° |
| 2026-04-16 12:05 | 22.76316 | 113.50992 | 10789 ft | 306 kts | 172° |
| 2026-04-16 12:05 | 22.74251 | 113.51456 | 10590 ft | 298 kts | 172° |
| 2026-04-16 12:05 | 22.72235 | 113.51907 | 10282 ft | 295 kts | 172° |
| 2026-04-16 12:05 | 22.70235 | 113.52353 | 9955 ft | 293 kts | 172° |
| 2026-04-16 12:06 | 22.68239 | 113.52799 | 9603 ft | 291 kts | 172° |
| 2026-04-16 12:06 | 22.66267 | 113.53239 | 9236 ft | 289 kts | 172° |
| 2026-04-16 12:06 | 22.64324 | 113.53673 | 8860 ft | 288 kts | 171° |
| 2026-04-16 12:06 | 22.62359 | 113.54112 | 8452 ft | 288 kts | 171° |
| 2026-04-16 12:07 | 22.60414 | 113.54547 | 8167 ft | 284 kts | 171° |
| 2026-04-16 12:07 | 22.58480 | 113.54979 | 7848 ft | 284 kts | 171° |
| 2026-04-16 12:07 | 22.56537 | 113.55412 | 7502 ft | 284 kts | 171° |
| 2026-04-16 12:07 | 22.54610 | 113.55842 | 7163 ft | 282 kts | 171° |
| 2026-04-16 12:08 | 22.52682 | 113.56275 | 6827 ft | 283 kts | 170° |
| 2026-04-16 12:08 | 22.50781 | 113.56824 | 6502 ft | 285 kts | 165° |
| 2026-04-16 12:08 | 22.48888 | 113.57452 | 6186 ft | 283 kts | 165° |
| 2026-04-16 12:08 | 22.47018 | 113.58068 | 5860 ft | 281 kts | 165° |
| 2026-04-16 12:09 | 22.45136 | 113.58676 | 5563 ft | 281 kts | 165° |
| 2026-04-16 12:09 | 22.43266 | 113.59274 | 5254 ft | 278 kts | 165° |
| 2026-04-16 12:09 | 22.41429 | 113.59858 | 4955 ft | 279 kts | 165° |
| 2026-04-16 12:09 | 22.39563 | 113.60448 | 4689 ft | 277 kts | 165° |
| 2026-04-16 12:10 | 22.37748 | 113.61025 | 4545 ft | 266 kts | 165° |
| 2026-04-16 12:10 | 22.36003 | 113.61577 | 4415 ft | 257 kts | 165° |
| 2026-04-16 12:10 | 22.34315 | 113.62113 | 4275 ft | 248 kts | 165° |
| 2026-04-16 12:10 | 22.32697 | 113.62656 | 4165 ft | 240 kts | 164° |
| 2026-04-16 12:11 | 22.31132 | 113.63191 | 4051 ft | 232 kts | 164° |
| 2026-04-16 12:11 | 22.29606 | 113.63698 | 3910 ft | 224 kts | 167° |
| 2026-04-16 12:11 | 22.28100 | 113.63716 | 3731 ft | 214 kts | 200° |
| 2026-04-16 12:11 | 22.26829 | 113.62974 | 3635 ft | 204 kts | 216° |
| 2026-04-16 12:12 | 22.25717 | 113.62133 | 3493 ft | 190 kts | 217° |
| 2026-04-16 12:12 | 22.24701 | 113.61357 | 3305 ft | 168 kts | 217° |
| 2026-04-16 12:12 | 22.23788 | 113.60667 | 3030 ft | 154 kts | 217° |
| 2026-04-16 12:12 | 22.22950 | 113.60023 | 2816 ft | 141 kts | 217° |
| 2026-04-16 12:13 | 22.22191 | 113.59439 | 2605 ft | 129 kts | 216° |
| 2026-04-16 12:13 | 22.21453 | 113.58874 | 2271 ft | 131 kts | 215° |
| 2026-04-16 12:13 | 22.20707 | 113.58305 | 1917 ft | 131 kts | 214° |
| 2026-04-16 12:13 | 22.19958 | 113.57753 | 1596 ft | 129 kts | 211° |
| 2026-04-16 12:14 | 22.19140 | 113.57438 | 1252 ft | 125 kts | 182° |
| 2026-04-16 12:14 | 22.18282 | 113.57712 | 848 ft | 133 kts | 155° |
| 2026-04-16 12:14 | 22.17449 | 113.58183 | 465 ft | 133 kts | 160° |
| 2026-04-16 12:14 | 22.16625 | 113.58526 | 213 ft | 122 kts | 164° |
| 2026-04-16 12:15 | 22.15858 | 113.58819 | 43 ft | 111 kts | 163° |
| 2026-04-16 12:15 | 22.15254 | 113.59030 | 34 ft | 67 kts | 161° |
| 2026-04-16 12:15 | 22.14862 | 113.59170 | 33 ft | 54 kts | 161° |
| 2026-04-16 12:15 | 22.14607 | 113.59229 | 34 ft | 20 kts | 217° |
| 2026-04-16 12:16 | 22.14587 | 113.59109 | 33 ft | 17 kts | 296° |
| 2026-04-16 12:16 | 22.14692 | 113.59048 | 33 ft | 18 kts | 337° |
| 2026-04-16 12:16 | 22.14778 | 113.58954 | 33 ft | 19 kts | 304° |
| 2026-04-16 12:16 | 22.14857 | 113.58825 | 33 ft | 22 kts | 303° |
| 2026-04-16 12:17 | 22.14947 | 113.58681 | 33 ft | 24 kts | 304° |
| 2026-04-16 12:17 | 22.15044 | 113.58524 | 33 ft | 26 kts | 303° |
| 2026-04-16 12:17 | 22.15150 | 113.58354 | 33 ft | 28 kts | 304° |
| 2026-04-16 12:17 | 22.15262 | 113.58172 | 33 ft | 30 kts | 303° |
| 2026-04-16 12:18 | 22.15382 | 113.57977 | 33 ft | 32 kts | 304° |
| 2026-04-16 12:18 | 22.15508 | 113.57775 | 33 ft | 33 kts | 303° |
| 2026-04-16 12:18 | 22.15595 | 113.57634 | 33 ft | 16 kts | 302° |
| 2026-04-16 12:18 | 22.15600 | 113.57545 | 33 ft | 10 kts | 238° |
| 2026-04-16 12:19 | 22.15564 | 113.57491 | 33 ft | 2 kts | 227° |
| 2026-04-16 12:19 | 22.15548 | 113.57487 | 33 ft | 3 kts | 184° |
| 2026-04-16 12:19 | 22.15526 | 113.57500 | 33 ft | 5 kts | 140° |
| 2026-04-16 12:19 | 22.15506 | 113.57532 | 33 ft | 3 kts | 130° |
| 2026-04-16 12:20 | 22.15495 | 113.57538 | 33 ft | 0 kts | 149° |
| 2026-04-16 12:20 | 22.15494 | 113.57539 | 33 ft | 0 kts | 149° |